createdAt,value
2023-03-06T00:00:57.395Z,9.05
2023-03-06T00:03:27.825Z,9.15
2023-03-06T00:05:57.404Z,9.07
2023-03-06T00:08:27.445Z,9.52
2023-03-06T00:10:56.256Z,8.95
2023-03-06T00:13:23.834Z,10.77
2023-03-06T00:15:50.964Z,9.18
2023-03-06T00:18:18.393Z,8.90
2023-03-06T00:20:45.590Z,9.85
2023-03-06T00:23:12.847Z,9.65
2023-03-06T00:25:44.573Z,9.82
2023-03-06T00:28:14.757Z,8.02
2023-03-06T00:30:42.853Z,9.23
2023-03-06T00:33:10.592Z,8.90
2023-03-06T00:35:40.076Z,9.68
2023-03-06T00:38:08.334Z,8.52
2023-03-06T00:40:35.402Z,9.88
2023-03-06T00:43:02.454Z,9.60
2023-03-06T00:45:29.816Z,10.25
2023-03-06T00:47:56.943Z,9.35
2023-03-06T00:50:24.781Z,8.18
2023-03-06T00:52:52.650Z,8.45
2023-03-06T00:55:19.780Z,10.07
2023-03-06T00:57:46.912Z,8.73
2023-03-06T01:00:15.188Z,8.60
2023-03-06T01:02:42.315Z,9.80
2023-03-06T01:05:10.285Z,9.10
2023-03-06T01:07:37.989Z,8.02
2023-03-06T01:10:08.028Z,9.55
2023-03-06T01:12:35.348Z,8.45
2023-03-06T01:15:02.534Z,9.07
2023-03-06T01:17:29.703Z,9.20
2023-03-06T01:19:58.158Z,8.45
2023-03-06T01:22:25.249Z,8.95
2023-03-06T01:24:53.249Z,9.15
2023-03-06T01:27:21.898Z,9.32
2023-03-06T01:29:49.014Z,9.05
2023-03-06T01:32:16.150Z,8.77
2023-03-06T01:34:43.261Z,7.90
2023-03-06T01:37:10.438Z,9.27
2023-03-06T01:39:37.523Z,9.52
2023-03-06T01:42:05.506Z,8.73
2023-03-06T01:44:32.668Z,9.38
2023-03-06T01:47:02.330Z,8.93
2023-03-06T01:49:37.074Z,8.98
2023-03-06T01:52:22.192Z,9.82
2023-03-06T01:55:03.600Z,8.90
2023-03-06T01:57:36.685Z,8.80
2023-03-06T02:00:27.286Z,9.32
2023-03-06T02:03:05.605Z,10.18
2023-03-06T02:05:33.729Z,9.77
2023-03-06T02:08:02.789Z,8.50
2023-03-06T02:10:30.299Z,11.90
2023-03-06T02:12:57.559Z,9.18
2023-03-06T02:15:29.028Z,9.93
2023-03-06T02:17:56.538Z,10.43
2023-03-06T02:20:37.886Z,8.85
2023-03-06T02:23:32.486Z,9.02
2023-03-06T02:26:01.380Z,9.07
2023-03-06T02:28:28.618Z,9.35
2023-03-06T02:30:57.194Z,9.75
2023-03-06T02:33:28.486Z,10.75
2023-03-06T02:36:02.197Z,11.10
2023-03-06T02:38:37.022Z,8.73
2023-03-06T02:41:09.210Z,8.80
2023-03-06T02:43:39.702Z,8.38
2023-03-06T02:46:07.769Z,10.40
2023-03-06T02:48:35.064Z,8.73
2023-03-06T02:51:02.165Z,8.70
2023-03-06T02:53:29.558Z,10.35
2023-03-06T02:55:59.415Z,10.73
2023-03-06T02:58:26.612Z,10.15
2023-03-06T03:00:53.750Z,10.32
2023-03-06T03:03:21.608Z,10.75
2023-03-06T03:05:48.731Z,10.50
2023-03-06T03:08:23.045Z,10.38
2023-03-06T03:10:56.675Z,11.07
2023-03-06T03:13:25.335Z,9.85
2023-03-06T03:16:14.077Z,10.60
2023-03-06T03:18:44.464Z,10.60
2023-03-06T03:21:14.435Z,10.48
2023-03-06T03:23:41.553Z,9.98
2023-03-06T03:26:16.402Z,10.13
2023-03-06T03:28:48.877Z,9.82
2023-03-06T03:31:18.889Z,11.25
2023-03-06T03:33:46.138Z,10.38
2023-03-06T03:36:13.713Z,9.88
2023-03-06T03:38:45.089Z,11.32
2023-03-06T03:41:12.444Z,9.07
2023-03-06T03:43:39.575Z,11.50
2023-03-06T03:46:06.677Z,9.60
2023-03-06T03:48:34.741Z,9.85
2023-03-06T03:51:13.964Z,9.82
2023-03-06T03:53:45.736Z,9.88
2023-03-06T03:56:15.411Z,10.38
2023-03-06T03:58:51.505Z,11.40
2023-03-06T04:01:18.855Z,9.43
2023-03-06T04:03:46.230Z,9.20
2023-03-06T04:06:15.324Z,9.70
2023-03-06T04:08:42.877Z,9.88
2023-03-06T04:11:12.015Z,9.38
2023-03-06T04:13:39.941Z,9.27
2023-03-06T04:16:07.654Z,8.88
2023-03-06T04:18:37.068Z,9.10
2023-03-06T04:21:06.368Z,7.78
2023-03-06T04:23:34.281Z,9.48
2023-03-06T04:26:01.713Z,9.00
2023-03-06T04:28:29.105Z,7.82
2023-03-06T04:30:57.391Z,8.90
2023-03-06T04:33:24.886Z,8.48
2023-03-06T04:35:52.128Z,8.23
2023-03-06T04:38:24.768Z,9.15
2023-03-06T04:40:51.901Z,9.70
2023-03-06T04:43:19.270Z,8.55
2023-03-06T04:45:46.395Z,8.23
2023-03-06T04:48:17.310Z,8.63
2023-03-06T04:50:44.792Z,8.30
2023-03-06T04:53:12.131Z,9.20
2023-03-06T04:55:39.252Z,8.05
2023-03-06T04:58:06.351Z,8.57
2023-03-06T05:00:33.551Z,8.05
2023-03-06T05:03:01.909Z,8.18
2023-03-06T05:05:29.326Z,7.93
2023-03-06T05:07:57.201Z,8.70
2023-03-06T05:10:24.540Z,8.88
2023-03-06T05:12:51.900Z,9.40
2023-03-06T05:15:19.066Z,8.55
2023-03-06T05:17:47.528Z,8.70
2023-03-06T05:20:15.329Z,8.60
2023-03-06T05:22:42.881Z,6.85
2023-03-06T05:25:10.826Z,7.88
2023-03-06T05:27:38.930Z,7.85
2023-03-06T05:30:07.833Z,9.02
2023-03-06T05:32:35.906Z,8.93
2023-03-06T05:35:04.368Z,7.05
2023-03-06T05:37:31.964Z,8.98
2023-03-06T05:39:59.626Z,8.85
2023-03-06T05:42:28.673Z,8.70
2023-03-06T05:44:55.851Z,7.63
2023-03-06T05:47:23.043Z,7.88
2023-03-06T05:49:50.401Z,7.97
2023-03-06T05:52:17.870Z,9.05
2023-03-06T05:54:50.093Z,8.85
2023-03-06T05:57:19.657Z,8.60
2023-03-06T05:59:47.159Z,9.88
2023-03-06T06:02:14.304Z,9.07
2023-03-06T06:04:41.477Z,7.82
2023-03-06T06:07:08.726Z,8.95
2023-03-06T06:09:35.809Z,8.75
2023-03-06T06:12:03.976Z,8.43
2023-03-06T06:14:34.401Z,8.60
2023-03-06T06:17:01.593Z,9.13
2023-03-06T06:19:30.197Z,8.40
2023-03-06T06:21:57.464Z,9.60
2023-03-06T06:24:26.592Z,8.70
2023-03-06T06:26:56.430Z,8.48
2023-03-06T06:29:24.325Z,8.75
2023-03-06T06:31:52.464Z,7.88
2023-03-06T06:34:21.584Z,8.25
2023-03-06T06:36:53.413Z,9.15
2023-03-06T06:39:23.475Z,8.80
2023-03-06T06:42:05.612Z,9.38
2023-03-06T06:44:38.861Z,8.77
2023-03-06T06:47:22.255Z,9.27
2023-03-06T06:49:55.096Z,7.03
2023-03-06T06:52:24.310Z,8.02
2023-03-06T06:54:54.025Z,9.38
2023-03-06T06:57:22.058Z,8.68
2023-03-06T06:59:51.260Z,8.73
2023-03-06T07:02:19.679Z,9.23
2023-03-06T07:05:02.478Z,8.95
2023-03-06T07:07:30.903Z,9.63
2023-03-06T07:09:58.023Z,9.02
2023-03-06T07:12:25.235Z,9.13
2023-03-06T07:14:52.847Z,9.60
2023-03-06T07:17:19.962Z,9.45
2023-03-06T07:19:48.195Z,10.10
2023-03-06T07:22:15.475Z,10.43
2023-03-06T07:24:42.604Z,9.32
2023-03-06T07:27:09.768Z,10.18
2023-03-06T07:29:36.885Z,9.63
2023-03-06T07:32:04.096Z,9.40
2023-03-06T07:34:31.216Z,9.27
2023-03-06T07:36:58.346Z,9.45
2023-03-06T07:39:25.596Z,9.90
2023-03-06T07:41:53.497Z,9.85
2023-03-06T07:44:20.678Z,9.55
2023-03-06T07:46:47.877Z,9.02
2023-03-06T07:49:15.089Z,9.90
2023-03-06T07:51:42.144Z,10.65
2023-03-06T07:54:09.419Z,10.52
2023-03-06T07:56:36.801Z,9.50
2023-03-06T07:59:03.968Z,10.82
2023-03-06T08:01:31.200Z,10.35
2023-03-06T08:03:58.790Z,10.25
2023-03-06T08:06:27.608Z,10.98
2023-03-06T08:08:55.830Z,10.60
2023-03-06T08:11:26.134Z,9.40
2023-03-06T08:13:54.469Z,10.10
2023-03-06T08:16:28.951Z,9.55
2023-03-06T08:18:57.706Z,9.20
2023-03-06T08:21:27.715Z,10.30
2023-03-06T08:23:55.341Z,9.88
2023-03-06T08:26:30.144Z,11.10
2023-03-06T08:29:00.106Z,10.17
2023-03-06T08:31:38.045Z,10.90
2023-03-06T08:34:17.714Z,9.10
2023-03-06T08:36:45.033Z,9.35
2023-03-06T08:39:13.138Z,9.90
2023-03-06T08:41:42.074Z,9.67
2023-03-06T08:44:11.938Z,10.13
2023-03-06T08:46:39.449Z,10.50
2023-03-06T08:49:06.857Z,10.90
2023-03-06T08:51:34.013Z,10.15
2023-03-06T08:54:01.225Z,9.20
2023-03-06T08:56:34.112Z,10.80
2023-03-06T08:59:04.177Z,10.05
2023-03-06T09:01:35.178Z,9.77
2023-03-06T09:04:09.052Z,8.95
2023-03-06T09:06:41.520Z,8.77
2023-03-06T09:09:09.486Z,10.60
2023-03-06T09:11:37.278Z,9.63
2023-03-06T09:14:05.561Z,9.65
2023-03-06T09:16:33.274Z,8.85
2023-03-06T09:19:00.478Z,9.10
2023-03-06T09:21:28.634Z,8.52
2023-03-06T09:23:56.527Z,9.98
2023-03-06T09:26:44.985Z,10.30
2023-03-06T09:29:13.158Z,10.25
2023-03-06T09:31:40.341Z,10.43
2023-03-06T09:34:07.505Z,9.25
2023-03-06T09:36:49.200Z,9.85
2023-03-06T09:39:21.637Z,8.98
2023-03-06T09:41:50.385Z,8.75
2023-03-06T09:44:23.990Z,8.73
2023-03-06T09:47:18.349Z,9.80
2023-03-06T09:50:10.330Z,8.73
2023-03-06T09:52:46.775Z,9.35
2023-03-06T09:55:21.387Z,8.55
2023-03-06T09:58:22.361Z,9.63
2023-03-06T10:01:07.282Z,10.10
2023-03-06T10:04:27.563Z,9.80
2023-03-06T10:07:10.423Z,9.10
2023-03-06T10:09:52.629Z,10.52
2023-03-06T10:12:25.208Z,9.57
2023-03-06T10:15:16.494Z,8.98
2023-03-06T10:17:44.450Z,9.07
2023-03-06T10:20:21.307Z,9.05
2023-03-06T10:23:13.330Z,7.95
2023-03-06T10:26:11.167Z,8.30
2023-03-06T10:29:13.446Z,7.75
2023-03-06T10:31:49.279Z,6.82
2023-03-06T10:34:24.035Z,7.75
2023-03-06T10:36:54.042Z,8.48
2023-03-06T10:39:22.929Z,8.73
2023-03-06T10:41:50.271Z,8.60
2023-03-06T10:44:20.297Z,8.95
2023-03-06T10:46:55.992Z,9.02
2023-03-06T10:49:57.216Z,7.22
2023-03-06T10:52:24.923Z,8.07
2023-03-06T10:54:52.640Z,8.38
2023-03-06T10:57:32.015Z,8.45
2023-03-06T11:00:24.594Z,8.85
2023-03-06T11:03:32.336Z,8.25
2023-03-06T11:06:29.629Z,9.17
2023-03-06T11:09:20.030Z,7.45
2023-03-06T11:11:47.272Z,7.80
2023-03-06T11:14:23.030Z,7.88
2023-03-06T11:16:53.372Z,6.57
2023-03-06T11:19:25.769Z,8.33
2023-03-06T11:22:18.382Z,7.40
2023-03-06T11:24:49.710Z,7.53
2023-03-06T11:27:34.476Z,8.48
2023-03-06T11:30:11.609Z,7.25
2023-03-06T11:32:50.395Z,7.87
2023-03-06T11:35:27.510Z,7.65
2023-03-06T11:38:20.373Z,7.70
2023-03-06T11:40:59.287Z,8.05
2023-03-06T11:43:53.332Z,7.05
2023-03-06T11:46:28.584Z,8.40
2023-03-06T11:49:24.627Z,9.80
2023-03-06T11:51:57.845Z,7.47
2023-03-06T11:54:25.365Z,8.15
2023-03-06T11:57:19.034Z,7.70
2023-03-06T12:00:04.243Z,8.17
2023-03-06T12:03:13.052Z,8.00
2023-03-06T12:06:04.203Z,7.25
2023-03-06T12:08:43.225Z,6.90
2023-03-06T12:11:40.947Z,7.13
2023-03-06T12:14:41.039Z,7.20
2023-03-06T12:17:56.554Z,7.93
2023-03-06T12:21:04.627Z,8.05
2023-03-06T12:24:20.153Z,6.68
2023-03-06T12:27:05.877Z,6.18
2023-03-06T12:29:55.279Z,7.53
2023-03-06T12:32:45.888Z,7.88
2023-03-06T12:35:51.386Z,8.18
2023-03-06T12:38:34.607Z,7.90
2023-03-06T12:41:45.622Z,8.05
2023-03-06T12:44:54.795Z,7.83
2023-03-06T12:47:30.826Z,7.80
2023-03-06T12:50:06.805Z,9.38
2023-03-06T12:52:34.927Z,7.47
2023-03-06T12:55:06.970Z,7.55
2023-03-06T12:57:34.120Z,8.57
2023-03-06T13:00:01.157Z,7.65
2023-03-06T13:03:02.512Z,8.68
2023-03-06T13:05:51.286Z,8.80
2023-03-06T13:09:07.608Z,8.35
2023-03-06T13:12:05.817Z,8.27
2023-03-06T13:14:34.222Z,7.72
2023-03-06T13:17:23.800Z,8.20
2023-03-06T13:20:13.900Z,9.20
2023-03-06T13:22:45.857Z,8.18
2023-03-06T13:25:20.888Z,8.73
2023-03-06T13:27:54.174Z,8.20
2023-03-06T13:30:23.483Z,8.05
2023-03-06T13:32:52.885Z,7.82
2023-03-06T13:35:32.276Z,8.05
2023-03-06T13:38:02.459Z,8.97
2023-03-06T13:40:36.134Z,8.50
2023-03-06T13:43:18.189Z,8.43
2023-03-06T13:45:47.471Z,9.45
2023-03-06T13:48:43.718Z,9.35
2023-03-06T13:51:24.411Z,9.40
2023-03-06T13:54:10.389Z,9.02
2023-03-06T13:57:17.391Z,8.55
2023-03-06T14:00:16.348Z,8.50
2023-03-06T14:02:52.779Z,8.23
2023-03-06T14:05:20.474Z,8.40
2023-03-06T14:08:10.818Z,7.95
2023-03-06T14:10:39.327Z,9.13
2023-03-06T14:13:23.960Z,8.13
2023-03-06T14:15:55.948Z,9.38
2023-03-06T14:18:33.997Z,8.40
2023-03-06T14:21:03.540Z,8.13
2023-03-06T14:23:42.569Z,8.82
2023-03-06T14:26:22.789Z,5.60
2023-03-06T14:28:52.889Z,6.90
2023-03-06T14:31:23.798Z,6.57
2023-03-06T14:34:05.576Z,6.65
2023-03-06T14:36:36.572Z,7.10
2023-03-06T14:39:12.848Z,5.53
2023-03-06T14:41:41.344Z,7.15
2023-03-06T14:44:21.767Z,7.13
2023-03-06T14:46:57.490Z,7.45
2023-03-06T14:49:26.367Z,7.95
2023-03-06T14:52:02.289Z,7.43
2023-03-06T14:54:37.008Z,7.25
2023-03-06T14:57:13.994Z,8.10
2023-03-06T15:00:00.009Z,8.32
2023-03-06T15:02:32.928Z,7.85
2023-03-06T15:05:17.026Z,7.88
2023-03-06T15:07:44.695Z,7.47
2023-03-06T15:10:24.041Z,7.20
2023-03-06T15:12:51.197Z,7.07
2023-03-06T15:15:18.466Z,7.50
2023-03-06T15:17:47.786Z,6.57
2023-03-06T15:20:44.743Z,7.57
2023-03-06T15:23:26.685Z,6.50
2023-03-06T15:25:59.621Z,5.45
2023-03-06T15:28:39.488Z,5.13
2023-03-06T15:31:42.107Z,5.00
2023-03-06T15:34:11.889Z,4.70
2023-03-06T15:36:45.691Z,4.90
2023-03-06T15:39:37.162Z,6.00
2023-03-06T15:42:21.826Z,5.00
2023-03-06T15:44:53.080Z,5.13
2023-03-06T15:47:24.475Z,5.22
2023-03-06T15:49:54.588Z,5.37
2023-03-06T15:52:23.102Z,4.95
2023-03-06T15:54:50.423Z,4.82
2023-03-06T15:57:31.706Z,4.53
2023-03-06T16:00:01.490Z,4.68
2023-03-06T16:02:38.555Z,5.27
2023-03-06T16:05:16.742Z,4.10
2023-03-06T16:07:44.223Z,4.32
2023-03-06T16:10:23.026Z,4.68
2023-03-06T16:13:08.469Z,4.32
2023-03-06T16:15:49.738Z,4.33
2023-03-06T16:18:19.174Z,3.97
2023-03-06T16:20:46.750Z,4.03
2023-03-06T16:23:15.368Z,4.55
2023-03-06T16:25:46.392Z,4.63
2023-03-06T16:28:16.518Z,4.40
2023-03-06T16:30:45.101Z,5.07
2023-03-06T16:33:13.176Z,4.07
2023-03-06T16:35:41.352Z,5.20
2023-03-06T16:38:10.044Z,4.35
2023-03-06T16:40:41.200Z,3.90
2023-03-06T16:43:10.698Z,5.10
2023-03-06T16:45:40.421Z,5.00
2023-03-06T16:48:08.081Z,4.22
2023-03-06T16:50:40.481Z,5.13
2023-03-06T16:53:08.538Z,5.13
2023-03-06T16:55:35.836Z,4.28
2023-03-06T16:58:03.076Z,4.18
2023-03-06T17:00:33.133Z,5.88
2023-03-06T17:03:01.871Z,4.65
2023-03-06T17:05:29.660Z,4.67
2023-03-06T17:07:56.809Z,4.78
2023-03-06T17:10:26.350Z,5.30
2023-03-06T17:12:54.408Z,4.68
2023-03-06T17:15:21.775Z,4.82
2023-03-06T17:17:49.393Z,4.60
2023-03-06T17:20:16.512Z,4.57
2023-03-06T17:22:43.694Z,4.78
2023-03-06T17:25:11.537Z,4.05
2023-03-06T17:27:38.703Z,4.63
2023-03-06T17:30:07.317Z,4.87
2023-03-06T17:32:34.805Z,4.25
2023-03-06T17:35:02.016Z,5.00
2023-03-06T17:37:29.159Z,4.30
2023-03-06T17:39:56.321Z,4.32
2023-03-06T17:42:23.490Z,4.47
2023-03-06T17:44:51.146Z,5.10
2023-03-06T17:47:18.293Z,4.57
2023-03-06T17:49:45.434Z,4.63
2023-03-06T17:52:12.528Z,4.63
2023-03-06T17:54:39.612Z,5.10
2023-03-06T17:57:06.702Z,5.28
2023-03-06T17:59:34.456Z,4.68
2023-03-06T18:02:02.126Z,4.72
2023-03-06T18:04:29.460Z,4.60
2023-03-06T18:06:58.288Z,4.63
2023-03-06T18:09:25.554Z,4.30
2023-03-06T18:11:52.721Z,5.40
2023-03-06T18:14:19.814Z,4.25
2023-03-06T18:16:47.272Z,4.45
2023-03-06T18:19:14.600Z,4.63
2023-03-06T18:21:41.797Z,4.38
2023-03-06T18:24:11.121Z,4.60
2023-03-06T18:26:42.184Z,4.57
2023-03-06T18:29:09.361Z,4.05
2023-03-06T18:31:42.161Z,4.85
2023-03-06T18:34:13.380Z,4.55
2023-03-06T18:36:43.507Z,4.93
2023-03-06T18:39:13.185Z,4.53
2023-03-06T18:41:41.388Z,4.18
2023-03-06T18:44:08.731Z,3.63
2023-03-06T18:46:38.084Z,4.10
2023-03-06T18:49:05.632Z,4.82
2023-03-06T18:51:32.982Z,4.25
2023-03-06T18:54:02.360Z,4.03
2023-03-06T18:56:29.773Z,4.13
2023-03-06T18:59:04.474Z,3.72
2023-03-06T19:01:32.674Z,4.30
2023-03-06T19:04:04.934Z,4.70
2023-03-06T19:06:32.558Z,3.70
2023-03-06T19:09:01.678Z,4.22
2023-03-06T19:11:29.193Z,4.03
2023-03-06T19:13:56.478Z,3.72
2023-03-06T19:16:27.340Z,5.15
2023-03-06T19:18:55.702Z,4.65
2023-03-06T19:21:26.239Z,4.55
2023-03-06T19:23:55.043Z,4.63
2023-03-06T19:26:22.492Z,4.00
2023-03-06T19:28:50.008Z,5.55
2023-03-06T19:31:25.128Z,4.70
2023-03-06T19:33:54.363Z,4.15
2023-03-06T19:36:27.643Z,3.80
2023-03-06T19:39:00.289Z,4.22
2023-03-06T19:41:28.587Z,5.05
2023-03-06T19:43:59.557Z,3.95
2023-03-06T19:46:28.062Z,4.47
2023-03-06T19:49:00.898Z,4.13
2023-03-06T19:51:28.535Z,4.22
2023-03-06T19:53:57.617Z,3.90
2023-03-06T19:56:28.825Z,4.25
2023-03-06T19:58:56.555Z,4.38
2023-03-06T20:01:25.883Z,4.78
2023-03-06T20:03:59.222Z,4.15
2023-03-06T20:06:31.470Z,4.15
2023-03-06T20:08:59.138Z,4.85
2023-03-06T20:11:30.227Z,4.53
2023-03-06T20:14:03.033Z,4.53
2023-03-06T20:16:31.289Z,4.00
2023-03-06T20:19:06.190Z,4.25
2023-03-06T20:21:42.758Z,4.57
2023-03-06T20:24:17.993Z,4.70
2023-03-06T20:26:47.309Z,3.65
2023-03-06T20:29:14.668Z,3.13
2023-03-06T20:31:41.847Z,3.95
2023-03-06T20:34:10.268Z,3.90
2023-03-06T20:36:40.485Z,4.00
2023-03-06T20:39:12.723Z,2.65
2023-03-06T20:41:40.281Z,3.22
2023-03-06T20:44:13.357Z,3.90
2023-03-06T20:46:40.960Z,2.85
2023-03-06T20:49:09.244Z,2.87
2023-03-06T20:51:39.232Z,2.40
2023-03-06T20:54:09.564Z,4.25
2023-03-06T20:56:39.744Z,3.55
2023-03-06T20:59:12.171Z,4.00
2023-03-06T21:01:42.698Z,4.00
2023-03-06T21:04:13.771Z,3.08
2023-03-06T21:06:46.587Z,3.58
2023-03-06T21:09:17.197Z,3.17
2023-03-06T21:11:45.123Z,4.35
2023-03-06T21:14:14.014Z,3.38
2023-03-06T21:16:41.770Z,3.70
2023-03-06T21:19:09.806Z,3.72
2023-03-06T21:21:36.972Z,3.25
2023-03-06T21:24:04.379Z,3.13
2023-03-06T21:26:35.487Z,3.20
2023-03-06T21:29:04.385Z,3.95
2023-03-06T21:31:33.474Z,5.00
2023-03-06T21:34:02.497Z,4.50
2023-03-06T21:36:31.472Z,3.95
2023-03-06T21:38:58.595Z,4.30
2023-03-06T21:41:28.774Z,3.47
2023-03-06T21:43:58.370Z,3.58
2023-03-06T21:46:26.919Z,4.90
2023-03-06T21:48:54.753Z,3.50
2023-03-06T21:51:23.755Z,4.17
2023-03-06T21:53:52.267Z,4.25
2023-03-06T21:56:22.476Z,4.13
2023-03-06T21:58:49.637Z,4.78
2023-03-06T22:01:21.806Z,4.47
2023-03-06T22:03:49.190Z,4.23
2023-03-06T22:06:20.401Z,4.65
2023-03-06T22:08:48.090Z,4.10
2023-03-06T22:11:20.870Z,4.95
2023-03-06T22:13:48.852Z,4.78
2023-03-06T22:16:17.259Z,4.40
2023-03-06T22:18:46.556Z,4.05
2023-03-06T22:21:16.871Z,4.15
2023-03-06T22:23:44.320Z,3.92
2023-03-06T22:26:14.346Z,3.95
2023-03-06T22:28:42.629Z,3.67
2023-03-06T22:31:21.405Z,4.00
2023-03-06T22:33:52.445Z,3.15
2023-03-06T22:36:21.394Z,3.30
2023-03-06T22:38:49.770Z,3.38
2023-03-06T22:41:18.337Z,4.32
2023-03-06T22:43:45.426Z,3.55
2023-03-06T22:46:16.575Z,3.30
2023-03-06T22:48:44.297Z,4.05
2023-03-06T22:51:15.158Z,4.10
2023-03-06T22:53:43.292Z,4.17
2023-03-06T22:56:14.788Z,4.43
2023-03-06T22:58:44.644Z,3.47
2023-03-06T23:01:18.431Z,3.97
2023-03-06T23:03:52.724Z,3.75
2023-03-06T23:06:24.420Z,2.77
2023-03-06T23:08:55.852Z,3.38
2023-03-06T23:11:24.762Z,3.38
2023-03-06T23:14:14.884Z,3.53
2023-03-06T23:17:00.590Z,3.45
2023-03-06T23:19:49.214Z,2.83
2023-03-06T23:22:34.975Z,3.00
2023-03-06T23:25:20.283Z,3.45
2023-03-06T23:27:47.537Z,3.42
2023-03-06T23:30:15.892Z,3.28
2023-03-06T23:32:45.747Z,3.60
2023-03-06T23:35:13.793Z,3.08
2023-03-06T23:37:40.877Z,3.63
2023-03-06T23:40:09.383Z,3.53
2023-03-06T23:42:36.647Z,3.13
2023-03-06T23:45:04.166Z,5.20
2023-03-06T23:47:33.237Z,4.13
2023-03-06T23:50:00.537Z,3.58
2023-03-06T23:52:27.625Z,3.88
2023-03-06T23:54:54.711Z,3.50
2023-03-06T23:57:21.777Z,3.70
2023-03-06T23:59:48.830Z,4.45
